Time;durP1;ratioP1;P1;durP2;ratioP2;P2;SDS_P1;SDS_P2;PMS_P1;PMS_P2;Temp;Humidity;BMP_temperature;BMP_pressure;BME280_temperature;BME280_humidity;BME280_pressure;Samples;Min_cycle;Max_cycle;Signal;HPM_P1;HPM_P2
2022/07/07 00:02:18;;;;;;;4.27;2.10;;;15.20;99.90;;;;;;5016965;28;20273;-74
2022/07/07 00:04:45;;;;;;;8.43;3.00;;;15.20;99.90;;;;;;5017357;28;20290;-74
2022/07/07 00:07:12;;;;;;;4.50;2.50;;;15.10;99.90;;;;;;5020339;28;20196;-74
2022/07/07 00:09:39;;;;;;;4.97;2.00;;;15.10;99.90;;;;;;5016808;28;20301;-74
2022/07/07 00:12:06;;;;;;;4.20;2.53;;;15.00;99.90;;;;;;5033103;28;20290;-74
2022/07/07 00:14:34;;;;;;;3.90;2.17;;;15.00;99.90;;;;;;5037251;28;20226;-73
2022/07/07 00:17:01;;;;;;;6.13;2.50;;;15.00;99.90;;;;;;5036672;28;20316;-72
2022/07/07 00:19:28;;;;;;;5.50;2.50;;;14.90;99.90;;;;;;5054423;28;20281;-73
2022/07/07 00:21:55;;;;;;;5.23;2.13;;;14.80;99.90;;;;;;5036120;28;20195;-73
2022/07/07 00:24:22;;;;;;;7.57;2.83;;;14.80;99.90;;;;;;5054434;28;20286;-72
2022/07/07 00:26:49;;;;;;;3.70;2.10;;;14.80;99.90;;;;;;5054395;28;20273;-73
2022/07/07 00:29:16;;;;;;;6.43;2.10;;;14.80;99.90;;;;;;5054177;28;20241;-73
2022/07/07 00:31:43;;;;;;;4.20;2.10;;;14.80;99.90;;;;;;5035987;28;20195;-73
2022/07/07 00:34:10;;;;;;;5.20;2.20;;;14.80;99.90;;;;;;5036274;28;20627;-73
2022/07/07 00:36:39;;;;;;;4.13;1.97;;;14.80;99.90;;;;;;5036303;28;20614;-72
2022/07/07 00:39:06;;;;;;;5.13;2.30;;;14.80;99.90;;;;;;5036120;28;20207;-73
2022/07/07 00:41:33;;;;;;;3.37;1.70;;;14.80;99.90;;;;;;5036038;28;20195;-73
2022/07/07 00:44:00;;;;;;;5.83;2.27;;;14.80;99.90;;;;;;5035782;28;20225;-74
2022/07/07 00:46:43;;;;;;;3.30;2.00;;;14.80;99.90;;;;;;5035981;28;20282;-73
2022/07/07 00:49:11;;;;;;;5.07;2.03;;;14.80;99.90;;;;;;5035753;28;20191;-73
2022/07/07 00:51:40;;;;;;;3.50;1.73;;;14.80;99.90;;;;;;5035827;28;20297;-73
2022/07/07 00:54:08;;;;;;;4.87;1.87;;;14.80;99.90;;;;;;5053743;28;20194;-73
2022/07/07 00:56:37;;;;;;;2.53;1.67;;;14.80;99.90;;;;;;5053851;28;20226;-73
2022/07/07 00:59:08;;;;;;;3.07;1.90;;;14.80;99.90;;;;;;5036053;28;20201;-73
2022/07/07 01:01:40;;;;;;;4.67;1.83;;;14.80;99.90;;;;;;5035736;28;20201;-72
2022/07/07 01:04:12;;;;;;;5.00;1.70;;;14.70;99.90;;;;;;5035685;28;20218;-73
2022/07/07 01:06:40;;;;;;;5.57;1.70;;;14.60;99.90;;;;;;5035421;28;20633;-73
2022/07/07 01:09:08;;;;;;;4.20;1.90;;;14.60;99.90;;;;;;5053473;28;20565;-73
2022/07/07 01:11:54;;;;;;;3.07;1.63;;;14.70;99.90;;;;;;5053562;28;20547;-73
2022/07/07 01:14:22;;;;;;;3.30;1.63;;;14.60;99.90;;;;;;5035703;28;20195;-75
2022/07/07 01:16:50;;;;;;;2.93;1.70;;;14.60;99.90;;;;;;5035688;28;20200;-74
2022/07/07 01:19:19;;;;;;;2.30;1.40;;;14.60;99.90;;;;;;5053617;28;20285;-73
2022/07/07 01:21:53;;;;;;;6.57;2.13;;;14.60;99.90;;;;;;5053230;28;20187;-73
2022/07/07 01:24:26;;;;;;;4.50;1.83;;;14.60;99.90;;;;;;5053194;28;20230;-73
2022/07/07 01:27:15;;;;;;;2.23;1.40;;;14.60;99.90;;;;;;5035853;28;20216;-73
2022/07/07 01:29:50;;;;;;;3.50;1.50;;;14.60;99.90;;;;;;5035470;28;20655;-73
2022/07/07 01:32:18;;;;;;;3.87;1.60;;;14.50;99.90;;;;;;5053296;28;20201;-73
2022/07/07 01:34:48;;;;;;;3.13;1.53;;;14.60;99.90;;;;;;5035163;28;20664;-73
2022/07/07 01:37:15;;;;;;;3.43;1.77;;;14.70;99.90;;;;;;5035289;28;20239;-73
2022/07/07 01:39:43;;;;;;;4.10;1.70;;;14.80;99.90;;;;;;5035146;28;20256;-73
2022/07/07 01:42:10;;;;;;;3.50;1.33;;;14.70;99.90;;;;;;5035180;28;20636;-74
2022/07/07 01:44:39;;;;;;;3.73;1.47;;;14.70;99.90;;;;;;5035262;28;20310;-73
2022/07/07 01:47:06;;;;;;;3.33;1.40;;;14.80;99.90;;;;;;5053414;28;20245;-74
2022/07/07 01:49:34;;;;;;;4.07;1.60;;;14.80;99.90;;;;;;5035342;28;20222;-73
2022/07/07 01:52:02;;;;;;;3.20;1.40;;;14.70;99.90;;;;;;5035195;28;20293;-75
2022/07/07 01:54:30;;;;;;;1.90;1.47;;;14.70;99.90;;;;;;5035091;28;20194;-75
2022/07/07 01:56:57;;;;;;;6.30;1.87;;;14.80;99.90;;;;;;5052991;28;20596;-74
2022/07/07 01:59:25;;;;;;;3.40;1.60;;;14.80;99.90;;;;;;5035377;28;20197;-74
2022/07/07 02:01:51;;;;;;;3.90;1.67;;;14.80;99.90;;;;;;5035238;28;20203;-73
2022/07/07 02:04:18;;;;;;;4.07;1.70;;;14.80;99.90;;;;;;5052979;28;20214;-74
2022/07/07 02:06:45;;;;;;;3.93;1.73;;;14.80;99.90;;;;;;5054800;28;20241;-73
2022/07/07 02:09:12;;;;;;;2.90;1.40;;;14.80;99.90;;;;;;5056954;28;20250;-75
2022/07/07 02:11:39;;;;;;;7.63;1.90;;;14.70;99.90;;;;;;5039139;28;20197;-73
2022/07/07 02:14:07;;;;;;;2.87;1.40;;;14.70;99.90;;;;;;5038913;28;20678;-73
2022/07/07 02:16:34;;;;;;;4.83;1.50;;;14.70;99.90;;;;;;5039052;28;20544;-73
2022/07/07 02:19:04;;;;;;;3.20;1.47;;;14.50;99.90;;;;;;5038737;28;20205;-74
2022/07/07 02:21:31;;;;;;;2.63;1.50;;;14.60;99.90;;;;;;5038969;28;20199;-73
2022/07/07 02:23:59;;;;;;;6.43;1.70;;;14.70;99.90;;;;;;5038483;28;20247;-72
2022/07/07 02:26:26;;;;;;;2.63;1.50;;;14.50;99.90;;;;;;5056591;28;20604;-73
2022/07/07 02:28:53;;;;;;;5.47;1.67;;;14.50;99.90;;;;;;5039066;28;20198;-73
2022/07/07 02:31:20;;;;;;;4.30;1.83;;;14.50;99.90;;;;;;5038883;28;20301;-74
2022/07/07 02:33:47;;;;;;;6.27;1.73;;;14.40;99.90;;;;;;5038346;28;20194;-73
2022/07/07 02:36:19;;;;;;;4.33;1.50;;;14.50;99.90;;;;;;5038743;28;20624;-73
2022/07/07 02:38:48;;;;;;;4.87;1.40;;;14.60;99.90;;;;;;5038533;28;20205;-74
2022/07/07 02:41:15;;;;;;;3.57;1.73;;;14.60;99.90;;;;;;5038700;28;20643;-74
2022/07/07 02:43:42;;;;;;;4.47;1.50;;;14.60;99.90;;;;;;5038406;28;20310;-74
2022/07/07 02:46:10;;;;;;;3.47;1.90;;;14.40;99.90;;;;;;5038280;28;20217;-74
2022/07/07 02:48:38;;;;;;;3.20;1.43;;;14.50;99.90;;;;;;5038284;28;20293;-74
2022/07/07 02:51:08;;;;;;;2.77;1.30;;;14.50;99.90;;;;;;5038294;28;20239;-74
2022/07/07 02:53:36;;;;;;;2.27;1.60;;;14.60;99.90;;;;;;5056034;28;20261;-73
2022/07/07 02:56:04;;;;;;;3.93;1.60;;;14.70;99.90;;;;;;5038342;28;20195;-74
2022/07/07 02:58:32;;;;;;;1.93;1.33;;;14.70;99.90;;;;;;5038343;28;20289;-74
2022/07/07 03:01:02;;;;;;;3.53;1.60;;;14.80;99.90;;;;;;5022090;28;20191;-74
2022/07/07 03:03:29;;;;;;;4.20;1.53;;;14.80;99.90;;;;;;5037888;28;20580;-74
2022/07/07 03:05:57;;;;;;;2.83;1.60;;;14.90;99.90;;;;;;5038046;28;20191;-74
2022/07/07 03:08:24;;;;;;;2.50;1.37;;;14.90;99.90;;;;;;5038170;28;20236;-74
2022/07/07 03:10:58;;;;;;;4.93;1.80;;;14.90;99.90;;;;;;5038064;28;20245;-74
2022/07/07 03:13:25;;;;;;;3.20;1.43;;;15.00;99.90;;;;;;5055709;28;20587;-74
2022/07/07 03:15:53;;;;;;;2.67;1.43;;;15.00;99.90;;;;;;5038346;28;20199;-74
2022/07/07 03:18:20;;;;;;;3.10;1.50;;;15.00;99.90;;;;;;5028750;28;20238;-72
2022/07/07 03:20:47;;;;;;;3.70;1.73;;;15.00;99.90;;;;;;5018050;28;20199;-74
2022/07/07 03:23:14;;;;;;;2.57;1.60;;;15.00;99.90;;;;;;5034339;28;20230;-75
2022/07/07 03:25:41;;;;;;;4.63;1.70;;;14.90;99.90;;;;;;5037706;28;20190;-74
2022/07/07 03:28:08;;;;;;;5.37;1.80;;;14.90;99.90;;;;;;5048466;28;20237;-75
2022/07/07 03:30:35;;;;;;;3.00;1.60;;;14.90;99.90;;;;;;5017670;28;20667;-74
2022/07/07 03:33:02;;;;;;;2.90;1.80;;;15.00;99.90;;;;;;5017828;28;20192;-74
2022/07/07 03:35:29;;;;;;;4.13;1.93;;;15.00;99.90;;;;;;5018007;28;20237;-73
2022/07/07 03:37:56;;;;;;;4.30;1.90;;;15.00;99.90;;;;;;5017770;28;20195;-73
2022/07/07 03:40:23;;;;;;;3.40;2.10;;;15.00;99.90;;;;;;5017917;28;20253;-75
2022/07/07 03:42:50;;;;;;;3.27;2.10;;;15.00;99.90;;;;;;5017481;28;20179;-75
2022/07/07 03:45:17;;;;;;;3.30;2.03;;;15.00;99.90;;;;;;5035456;28;20249;-75
2022/07/07 03:47:44;;;;;;;4.30;2.03;;;15.00;99.90;;;;;;5017755;28;20545;-75
2022/07/07 03:50:11;;;;;;;5.03;2.10;;;15.00;99.90;;;;;;5017231;28;20221;-76
2022/07/07 03:52:38;;;;;;;5.23;2.53;;;15.00;99.90;;;;;;5017051;28;20196;-75
2022/07/07 03:55:06;;;;;;;6.43;2.00;;;15.10;99.90;;;;;;5017209;28;20195;-74
2022/07/07 03:57:32;;;;;;;5.20;2.33;;;15.10;99.90;;;;;;5017267;28;20290;-75
2022/07/07 03:59:59;;;;;;;4.17;2.30;;;15.10;99.90;;;;;;5017676;28;20203;-77
2022/07/07 04:02:27;;;;;;;4.83;2.07;;;14.90;99.90;;;;;;5017329;28;20222;-75
2022/07/07 04:04:54;;;;;;;4.60;2.20;;;15.00;99.90;;;;;;5016856;28;20708;-73
2022/07/07 04:07:21;;;;;;;4.07;2.50;;;15.00;99.90;;;;;;5016846;28;20213;-75
2022/07/07 04:09:48;;;;;;;5.47;2.50;;;15.10;99.90;;;;;;5017170;28;20207;-74
2022/07/07 04:12:15;;;;;;;3.33;2.07;;;15.20;99.90;;;;;;5017002;28;20200;-74
2022/07/07 04:14:53;;;;;;;5.67;2.40;;;15.20;99.90;;;;;;5016779;28;20211;-74
2022/07/07 04:17:20;;;;;;;9.50;2.60;;;15.30;99.90;;;;;;5034741;28;20295;-73
2022/07/07 04:19:47;;;;;;;6.20;2.23;;;15.30;99.90;;;;;;5034425;28;20619;-75
2022/07/07 04:22:14;;;;;;;4.60;2.20;;;15.30;99.90;;;;;;5034386;28;20194;-74
2022/07/07 04:24:41;;;;;;;4.83;2.13;;;15.40;99.90;;;;;;5016954;28;20616;-74
2022/07/07 04:27:09;;;;;;;3.27;2.10;;;15.40;99.90;;;;;;5016542;28;20202;-74
2022/07/07 04:29:36;;;;;;;4.90;2.00;;;15.50;99.90;;;;;;5016842;28;20195;-74
2022/07/07 04:32:04;;;;;;;3.60;1.93;;;15.60;99.90;;;;;;5016536;28;20211;-73
2022/07/07 04:34:31;;;;;;;3.03;2.17;;;15.70;99.90;;;;;;5016485;28;20733;-72
2022/07/07 04:36:58;;;;;;;3.17;2.00;;;15.80;99.90;;;;;;5016795;28;20199;-73
2022/07/07 04:39:25;;;;;;;4.80;2.13;;;15.80;99.90;;;;;;5016422;28;20202;-72
2022/07/07 04:41:52;;;;;;;3.47;2.00;;;15.90;99.90;;;;;;5033857;28;20191;-72
2022/07/07 04:44:18;;;;;;;3.80;1.97;;;15.90;99.90;;;;;;5016312;28;20223;-72
2022/07/07 04:46:45;;;;;;;25.43;3.83;;;16.00;99.90;;;;;;5034078;28;20277;-74
2022/07/07 04:49:12;;;;;;;5.03;2.20;;;16.10;99.90;;;;;;5016364;28;20200;-73
2022/07/07 04:51:45;;;;;;;3.73;1.93;;;16.20;99.90;;;;;;5033784;28;20191;-74
2022/07/07 04:54:12;;;;;;;5.27;2.50;;;16.10;99.90;;;;;;5016383;28;20203;-75
2022/07/07 04:56:39;;;;;;;2.97;2.20;;;16.20;99.90;;;;;;5033668;28;20608;-76
2022/07/07 04:59:07;;;;;;;4.13;2.27;;;16.20;99.90;;;;;;5033909;28;20245;-75
2022/07/07 05:01:34;;;;;;;6.07;2.20;;;16.20;99.90;;;;;;5015829;28;20195;-73
2022/07/07 05:04:02;;;;;;;4.10;2.00;;;16.30;99.90;;;;;;5015910;28;20269;-73
2022/07/07 05:06:29;;;;;;;3.80;2.07;;;16.30;99.90;;;;;;5016225;28;20257;-73
2022/07/07 05:08:56;;;;;;;3.57;2.10;;;16.30;99.90;;;;;;5033693;28;20289;-74
2022/07/07 05:11:22;;;;;;;3.53;2.00;;;16.30;99.90;;;;;;5034157;28;20191;-73
2022/07/07 05:13:49;;;;;;;11.80;2.40;;;16.30;99.90;;;;;;5015736;28;20671;-73
2022/07/07 05:16:17;;;;;;;3.93;2.07;;;16.30;99.90;;;;;;5016198;28;20294;-73
2022/07/07 05:18:44;;;;;;;6.60;2.30;;;16.40;99.90;;;;;;5033670;28;20533;-73
2022/07/07 05:21:11;;;;;;;5.63;1.97;;;16.40;99.90;;;;;;5015801;28;20641;-74
2022/07/07 05:23:38;;;;;;;3.30;2.13;;;16.40;99.90;;;;;;5033412;28;20306;-74
2022/07/07 05:26:06;;;;;;;3.87;1.93;;;16.30;99.90;;;;;;5015851;28;20206;-74
2022/07/07 05:28:33;;;;;;;4.20;1.90;;;16.10;99.90;;;;;;5015905;28;20282;-74
2022/07/07 05:31:00;;;;;;;4.20;2.00;;;16.20;99.90;;;;;;5015805;28;20191;-74
2022/07/07 05:33:28;;;;;;;3.47;1.97;;;16.10;99.90;;;;;;5033264;28;20237;-73
2022/07/07 05:35:55;;;;;;;3.40;1.70;;;16.30;99.90;;;;;;5033664;28;20196;-73
2022/07/07 05:38:28;;;;;;;4.93;1.60;;;16.50;99.90;;;;;;5015514;28;20202;-75
2022/07/07 05:40:55;;;;;;;9.37;2.47;;;16.60;99.90;;;;;;5015403;28;20205;-75
2022/07/07 05:43:22;;;;;;;6.07;1.97;;;16.60;99.90;;;;;;5033345;28;20282;-76
2022/07/07 05:45:49;;;;;;;2.97;1.70;;;16.70;99.90;;;;;;5015650;28;20191;-76
2022/07/07 05:48:16;;;;;;;4.67;1.90;;;16.80;99.90;;;;;;5015677;28;20202;-76
2022/07/07 05:50:43;;;;;;;5.63;1.80;;;17.00;99.90;;;;;;5015613;28;20217;-76
2022/07/07 05:53:11;;;;;;;4.83;1.67;;;17.10;99.90;;;;;;5015387;28;20206;-75
2022/07/07 05:55:38;;;;;;;4.97;1.60;;;17.20;99.90;;;;;;5015650;28;20250;-76
2022/07/07 05:58:05;;;;;;;4.83;1.80;;;17.10;99.90;;;;;;5033360;28;20613;-75
2022/07/07 06:00:32;;;;;;;4.40;1.80;;;17.10;99.90;;;;;;5015711;28;20374;-75
2022/07/07 06:02:59;;;;;;;2.53;1.50;;;17.00;99.90;;;;;;5015325;28;20282;-76
2022/07/07 06:05:26;;;;;;;5.93;1.57;;;17.00;99.90;;;;;;5015344;28;20223;-75
2022/07/07 06:07:53;;;;;;;6.27;1.80;;;17.10;99.90;;;;;;5015340;28;20227;-76
2022/07/07 06:10:20;;;;;;;4.97;1.50;;;17.30;99.90;;;;;;5033235;28;20227;-75
2022/07/07 06:12:48;;;;;;;4.00;1.80;;;17.20;99.90;;;;;;5015507;28;20198;-75
2022/07/07 06:15:17;;;;;;;3.33;1.80;;;17.40;99.90;;;;;;5015279;28;20203;-76
2022/07/07 06:17:44;;;;;;;6.00;2.33;;;17.40;99.90;;;;;;5015419;28;20278;-76
2022/07/07 06:20:31;;;;;;;3.80;1.93;;;17.50;99.90;;;;;;5014781;28;20207;-76
2022/07/07 06:22:58;;;;;;;3.70;2.27;;;17.70;99.90;;;;;;5032953;28;20562;-76
2022/07/07 06:25:26;;;;;;;5.20;2.37;;;17.70;99.90;;;;;;5032787;28;20261;-76
2022/07/07 06:27:54;;;;;;;6.97;2.17;;;17.50;99.90;;;;;;5015644;28;20282;-75
2022/07/07 06:30:21;;;;;;;4.37;2.00;;;17.40;99.90;;;;;;5015147;28;20649;-76
2022/07/07 06:32:48;;;;;;;2.33;1.70;;;17.50;99.90;;;;;;5015226;28;20196;-75
2022/07/07 06:35:15;;;;;;;5.40;1.90;;;17.70;99.90;;;;;;5014892;28;20291;-76
2022/07/07 06:37:42;;;;;;;4.63;1.77;;;17.90;99.90;;;;;;5015264;28;20283;-76
2022/07/07 06:40:09;;;;;;;2.47;1.33;;;18.10;99.90;;;;;;5015395;28;20294;-74
2022/07/07 06:42:36;;;;;;;7.27;2.17;;;17.90;99.90;;;;;;5014958;28;20194;-75
2022/07/07 06:45:05;;;;;;;2.53;1.50;;;17.80;99.90;;;;;;5032625;28;20218;-75
2022/07/07 06:47:32;;;;;;;2.87;1.60;;;17.90;99.90;;;;;;5015081;28;20243;-74
2022/07/07 06:49:59;;;;;;;3.10;1.50;;;18.20;99.90;;;;;;5015029;28;20227;-76
2022/07/07 06:52:26;;;;;;;5.00;1.60;;;18.30;99.90;;;;;;5033669;28;20587;-76
2022/07/07 06:54:53;;;;;;;3.50;1.27;;;18.40;99.90;;;;;;5018368;28;20206;-76
2022/07/07 06:57:20;;;;;;;4.80;1.40;;;18.40;99.90;;;;;;5018160;28;20226;-77
2022/07/07 06:59:47;;;;;;;3.27;1.23;;;18.30;99.90;;;;;;5018693;28;20234;-76
2022/07/07 07:02:14;;;;;;;2.60;1.30;;;18.30;99.90;;;;;;5036288;28;20295;-77
2022/07/07 07:04:41;;;;;;;2.70;1.10;;;18.50;99.90;;;;;;5031125;28;20223;-78
2022/07/07 07:07:08;;;;;;;3.83;1.10;;;18.70;99.90;;;;;;5054382;28;20769;-76
2022/07/07 07:09:35;;;;;;;3.67;0.80;;;18.90;99.90;;;;;;5054258;28;20695;-76
2022/07/07 07:12:02;;;;;;;1.47;0.90;;;18.90;99.90;;;;;;5054707;28;20541;-76
2022/07/07 07:14:28;;;;;;;1.87;1.10;;;19.00;99.90;;;;;;5037502;28;20625;-79
2022/07/07 07:16:55;;;;;;;2.23;1.10;;;19.00;99.90;;;;;;5055929;28;20191;-78
2022/07/07 07:19:22;;;;;;;2.87;1.00;;;18.80;99.90;;;;;;5054532;28;20256;-83
2022/07/07 07:21:49;;;;;;;0.97;0.87;;;18.80;99.90;;;;;;5053835;28;20198;-76
2022/07/07 07:24:16;;;;;;;2.03;1.00;;;18.80;99.90;;;;;;5055625;28;20222;-76
2022/07/07 07:26:44;;;;;;;2.77;1.27;;;18.90;99.90;;;;;;5055790;28;20187;-79
2022/07/07 07:29:13;;;;;;;2.17;0.80;;;19.20;99.90;;;;;;5055542;28;20186;-79
2022/07/07 07:31:40;;;;;;;2.70;0.90;;;19.40;99.90;;;;;;5053839;28;20205;-74
2022/07/07 07:34:08;;;;;;;2.63;0.70;;;19.40;99.90;;;;;;5054048;28;20629;-78
2022/07/07 07:36:35;;;;;;;1.30;0.80;;;19.20;99.90;;;;;;5053837;28;20205;-85
2022/07/07 07:39:02;;;;;;;2.63;0.90;;;19.20;99.90;;;;;;5055088;28;20578;-79
2022/07/07 07:41:29;;;;;;;2.17;0.90;;;19.40;99.90;;;;;;5053875;28;20294;-78
2022/07/07 07:43:56;;;;;;;4.90;0.90;;;19.20;99.90;;;;;;5053759;28;20237;-73
2022/07/07 07:46:23;;;;;;;1.40;0.90;;;19.00;99.90;;;;;;5055494;28;20583;-72
2022/07/07 07:48:50;;;;;;;4.07;0.80;;;19.10;99.90;;;;;;5055301;28;20232;-73
2022/07/07 07:51:18;;;;;;;2.07;1.03;;;19.10;99.90;;;;;;5053849;28;20310;-74
2022/07/07 07:53:45;;;;;;;2.33;0.80;;;19.00;99.90;;;;;;5053597;28;20199;-76
2022/07/07 07:56:12;;;;;;;0.93;0.73;;;19.20;99.90;;;;;;5054852;28;20187;-78
2022/07/07 07:58:38;;;;;;;2.80;1.10;;;19.30;99.90;;;;;;5053640;28;20245;-76
2022/07/07 08:01:06;;;;;;;2.70;0.77;;;19.20;99.90;;;;;;5054643;28;20226;-76
2022/07/07 08:03:33;;;;;;;2.00;0.70;;;19.10;99.90;;;;;;5052674;28;20202;-77
2022/07/07 08:06:01;;;;;;;1.67;0.70;;;19.20;99.90;;;;;;5053324;28;20373;-77
2022/07/07 08:08:28;;;;;;;1.77;0.70;;;19.40;99.90;;;;;;5053187;28;20280;-75
2022/07/07 08:10:55;;;;;;;1.50;0.70;;;19.10;99.90;;;;;;5053235;28;20690;-75
2022/07/07 08:13:22;;;;;;;1.17;0.70;;;19.00;99.90;;;;;;5053125;28;20274;-74
2022/07/07 08:15:49;;;;;;;4.93;1.07;;;18.90;99.90;;;;;;5053358;28;20230;-75
2022/07/07 08:18:17;;;;;;;1.23;0.70;;;18.80;99.90;;;;;;5053392;28;20237;-74
2022/07/07 08:20:45;;;;;;;1.90;0.90;;;18.70;99.90;;;;;;5052792;28;20433;-74
2022/07/07 08:23:11;;;;;;;2.23;0.70;;;18.70;99.90;;;;;;5053205;28;20213;-74
2022/07/07 08:25:38;;;;;;;1.93;0.73;;;18.70;99.90;;;;;;5054215;28;20226;-74
2022/07/07 08:28:05;;;;;;;4.13;1.20;;;18.90;99.90;;;;;;5054301;28;20191;-75
2022/07/07 08:30:32;;;;;;;1.87;0.87;;;18.90;99.90;;;;;;5053130;28;20567;-77
2022/07/07 08:32:59;;;;;;;2.73;0.90;;;19.50;99.90;;;;;;5054037;28;20310;-80
2022/07/07 08:35:26;;;;;;;3.97;1.67;;;20.20;99.90;;;;;;5054105;28;20201;-76
2022/07/07 08:37:53;;;;;;;1.93;0.80;;;20.70;99.90;;;;;;5053034;28;20205;-74
2022/07/07 08:40:20;;;;;;;3.27;1.10;;;20.40;99.90;;;;;;5052692;28;20221;-78
2022/07/07 08:42:54;;;;;;;1.93;0.77;;;19.90;99.90;;;;;;5052849;28;20663;-75
2022/07/07 08:45:21;;;;;;;3.13;1.10;;;20.20;99.90;;;;;;5052908;28;20301;-78
2022/07/07 08:47:48;;;;;;;1.40;0.60;;;20.50;99.90;;;;;;5052605;28;20253;-76
2022/07/07 08:50:15;;;;;;;1.57;0.60;;;20.60;99.90;;;;;;5052617;28;20241;-73
2022/07/07 08:52:44;;;;;;;3.00;0.80;;;20.90;99.90;;;;;;5053933;28;20290;-74
2022/07/07 08:55:15;;;;;;;5.57;1.00;;;21.10;99.90;;;;;;5052530;28;20237;-74
2022/07/07 08:57:43;;;;;;;1.83;0.73;;;21.30;99.90;;;;;;5052441;28;20187;-74
2022/07/07 09:00:10;;;;;;;3.17;0.87;;;21.60;99.90;;;;;;5052211;28;20286;-72
2022/07/07 09:02:37;;;;;;;0.80;0.70;;;22.10;99.90;;;;;;5052381;28;20281;-72
2022/07/07 09:05:05;;;;;;;2.00;0.73;;;22.40;99.90;;;;;;5048971;28;20206;-74
2022/07/07 09:07:49;;;;;;;1.57;0.80;;;22.70;99.90;;;;;;5033574;28;20683;-72
2022/07/07 09:10:29;;;;;;;1.85;0.80;;;23.30;99.90;;;;;;5035219;28;20206;-74
2022/07/07 09:12:57;;;;;;;1.05;0.85;;;22.90;99.90;;;;;;5053009;28;20539;-73
2022/07/07 09:15:24;;;;;;;2.13;1.07;;;22.30;99.90;;;;;;5034653;28;20203;-76
2022/07/07 09:17:51;;;;;;;1.37;0.80;;;22.20;99.90;;;;;;5035229;28;20203;-74
2022/07/07 09:20:19;;;;;;;1.33;0.97;;;21.80;99.90;;;;;;5035411;28;20201;-73
2022/07/07 09:22:49;;;;;;;3.87;1.00;;;22.10;99.90;;;;;;5052732;28;20191;-76
2022/07/07 09:25:18;;;;;;;0.95;0.80;;;21.90;99.90;;;;;;5052970;28;20214;-73
2022/07/07 09:28:04;;;;;;;1.20;0.73;;;21.70;99.90;;;;;;5052975;28;20277;-75
2022/07/07 09:30:53;;;;;;;2.57;0.87;;;22.20;99.90;;;;;;5035446;28;20565;-74
2022/07/07 09:33:25;;;;;;;3.33;0.83;;;21.90;99.90;;;;;;5035038;28;20640;-75
2022/07/07 09:38:40;;;;;;;4.80;0.93;;;22.50;99.90;;;;;;5035184;28;20636;-74
2022/07/07 09:41:17;;;;;;;2.27;0.77;;;22.80;99.90;;;;;;5035273;28;20614;-75
2022/07/07 09:43:52;;;;;;;2.67;0.90;;;22.90;99.90;;;;;;5051728;28;20905;-77
2022/07/07 09:46:20;;;;;;;1.80;0.80;;;23.10;99.90;;;;;;5035009;28;20483;-75
2022/07/07 09:48:49;;;;;;;2.23;0.80;;;22.80;99.90;;;;;;5035522;28;20201;-75
2022/07/07 09:51:24;;;;;;;1.47;0.70;;;22.30;99.90;;;;;;5035090;28;20317;-75
2022/07/07 09:53:57;;;;;;;6.00;1.30;;;21.70;99.90;;;;;;5035109;28;20194;-75
2022/07/07 09:56:36;;;;;;;3.50;0.83;;;21.90;99.90;;;;;;5035324;28;20202;-75
2022/07/07 09:59:06;;;;;;;3.17;0.90;;;21.90;99.90;;;;;;5035186;28;20190;-75
2022/07/07 10:01:41;;;;;;;1.63;0.90;;;21.70;99.90;;;;;;5035300;28;20664;-74
2022/07/07 10:04:25;;;;;;;1.37;0.70;;;21.60;99.90;;;;;;5052765;28;20214;-76
2022/07/07 10:06:53;;;;;;;1.63;0.80;;;21.60;99.90;;;;;;5035214;28;20215;-75
2022/07/07 10:09:21;;;;;;;5.20;1.00;;;21.80;99.90;;;;;;5034668;28;20318;-75
2022/07/07 10:11:55;;;;;;;2.37;0.97;;;22.30;99.90;;;;;;5035093;28;20281;-73
2022/07/07 10:14:24;;;;;;;1.67;0.70;;;22.70;99.90;;;;;;5021186;28;20221;-75
2022/07/07 10:16:53;;;;;;;2.27;1.00;;;22.60;99.90;;;;;;5034225;28;20706;-76
2022/07/07 10:19:22;;;;;;;1.77;0.63;;;22.80;99.90;;;;;;5035143;28;20183;-75
2022/07/07 10:21:52;;;;;;;1.10;0.70;;;22.90;99.90;;;;;;5034985;28;20655;-75
2022/07/07 10:24:21;;;;;;;1.40;0.80;;;22.90;99.90;;;;;;5034510;28;20290;-73
2022/07/07 10:27:00;;;;;;;3.13;0.98;;;22.80;99.90;;;;;;5035036;28;20297;-75
2022/07/07 10:29:40;;;;;;;2.70;0.80;;;23.00;99.90;;;;;;5022107;28;20191;-73
2022/07/07 10:32:16;;;;;;;2.00;1.10;;;22.60;99.90;;;;;;5038466;28;20222;-73
2022/07/07 10:34:53;;;;;;;2.10;1.10;;;22.30;99.90;;;;;;5027491;28;20640;-74
2022/07/07 10:37:22;;;;;;;1.93;1.00;;;22.00;99.90;;;;;;5036756;28;20245;-78
2022/07/07 10:39:53;;;;;;;2.60;0.90;;;22.00;99.90;;;;;;5026484;28;20198;-79
2022/07/07 10:42:30;;;;;;;1.40;0.70;;;21.40;99.90;;;;;;5020860;28;20592;-75
2022/07/07 10:44:58;;;;;;;1.63;0.80;;;21.60;99.90;;;;;;5018504;28;20698;-77
2022/07/07 10:47:25;;;;;;;3.10;0.80;;;21.90;99.90;;;;;;5035991;28;20290;-77
2022/07/07 10:49:55;;;;;;;4.63;0.90;;;22.10;99.90;;;;;;5018498;28;20219;-77
2022/07/07 10:52:25;;;;;;;2.90;0.77;;;22.30;99.90;;;;;;5026078;28;20290;-75
2022/07/07 10:54:55;;;;;;;2.23;1.00;;;22.30;99.90;;;;;;5038023;28;20631;-77
2022/07/07 10:57:24;;;;;;;3.50;1.00;;;22.30;99.90;;;;;;5037577;28;20219;-80
2022/07/07 10:59:59;;;;;;;1.40;0.73;;;22.00;99.90;;;;;;5018344;28;20227;-75
2022/07/07 11:02:39;;;;;;;2.60;0.77;;;22.10;99.90;;;;;;5035621;28;20238;-77
2022/07/07 11:05:14;;;;;;;7.00;1.20;;;22.30;99.90;;;;;;5018582;28;20595;-76
2022/07/07 11:07:55;;;;;;;8.60;1.40;;;22.70;99.90;;;;;;5037615;28;20293;-77
2022/07/07 11:10:44;;;;;;;4.13;1.03;;;22.80;99.90;;;;;;5049066;28;20276;-78
2022/07/07 11:13:21;;;;;;;3.10;0.90;;;22.90;99.90;;;;;;5037624;28;20681;-78
2022/07/07 11:15:51;;;;;;;2.73;0.90;;;22.70;99.60;;;;;;5037798;28;20202;-74
2022/07/07 11:18:19;;;;;;;2.00;1.13;;;22.80;99.60;;;;;;5037721;28;20202;-73
2022/07/07 11:21:01;;;;;;;7.03;3.40;;;22.70;99.60;;;;;;5037592;28;20643;-70
2022/07/07 11:23:48;;;;;;;5.33;1.00;;;23.10;99.90;;;;;;5037586;28;20187;-70
2022/07/07 11:26:17;;;;;;;4.03;1.00;;;23.30;99.70;;;;;;5055189;28;20215;-70
2022/07/07 11:28:52;;;;;;;4.18;1.05;;;23.30;98.90;;;;;;5037912;28;20233;-70
2022/07/07 11:31:19;;;;;;;2.85;1.00;;;24.00;99.00;;;;;;5055409;28;20610;-70
2022/07/07 11:33:54;;;;;;;2.03;0.85;;;24.40;96.50;;;;;;5037586;28;20199;-71
2022/07/07 11:36:26;;;;;;;3.63;1.13;;;24.70;94.90;;;;;;5037414;28;20285;-71
2022/07/07 11:38:57;;;;;;;1.20;0.75;;;25.20;94.90;;;;;;5036289;28;20214;-70
2022/07/07 11:41:45;;;;;;;3.08;1.05;;;25.60;93.10;;;;;;5037487;28;20221;-71
2022/07/07 11:44:22;;;;;;;1.15;0.73;;;26.20;93.70;;;;;;5036841;28;20253;-68
2022/07/07 11:46:51;;;;;;;0.98;0.75;;;26.80;90.80;;;;;;5030716;28;20691;-70
2022/07/07 11:49:20;;;;;;;2.45;0.70;;;27.50;86.30;;;;;;5037168;28;20195;-70
2022/07/07 11:51:48;;;;;;;1.63;0.80;;;26.60;81.00;;;;;;5037065;28;20586;-69
2022/07/07 11:54:16;;;;;;;3.83;0.90;;;25.80;83.80;;;;;;5054921;28;20221;-70
2022/07/07 11:56:43;;;;;;;2.58;1.20;;;25.60;85.50;;;;;;5055341;28;20702;-70
2022/07/07 11:59:11;;;;;;;2.08;0.93;;;24.90;87.50;;;;;;5036961;28;20683;-69
2022/07/07 12:01:40;;;;;;;2.30;0.90;;;24.50;86.90;;;;;;5054579;28;20550;-69
2022/07/07 12:04:20;;;;;;;1.83;0.80;;;24.30;87.70;;;;;;5037191;28;20199;-69
2022/07/07 12:06:50;;;;;;;2.90;0.90;;;24.30;88.60;;;;;;5036809;28;20230;-69
2022/07/07 12:09:17;;;;;;;3.55;0.82;;;24.00;89.80;;;;;;5036698;28;20258;-69
2022/07/07 12:11:44;;;;;;;5.72;1.10;;;24.10;90.00;;;;;;5036612;28;20202;-69
2022/07/07 12:14:12;;;;;;;1.75;0.90;;;24.00;89.00;;;;;;5036660;28;20195;-70
2022/07/07 12:16:51;;;;;;;1.98;0.98;;;23.90;90.60;;;;;;5036606;28;20273;-70
2022/07/07 12:19:18;;;;;;;3.38;1.20;;;23.90;90.40;;;;;;5036639;28;20562;-70
2022/07/07 12:21:47;;;;;;;1.67;1.15;;;23.40;90.30;;;;;;5036854;28;20209;-71
2022/07/07 12:24:16;;;;;;;4.37;1.03;;;23.60;89.70;;;;;;5036500;28;20203;-71
2022/07/07 12:26:48;;;;;;;2.33;1.30;;;23.90;88.80;;;;;;5054387;28;20297;-72
2022/07/07 12:29:17;;;;;;;1.65;1.05;;;24.00;87.10;;;;;;5054026;28;20186;-69
2022/07/07 12:31:45;;;;;;;2.17;1.17;;;24.60;89.70;;;;;;5036427;28;20203;-72
2022/07/07 12:34:15;;;;;;;2.80;1.00;;;25.10;84.90;;;;;;5054148;28;20537;-73
2022/07/07 12:36:45;;;;;;;9.48;1.63;;;24.90;83.90;;;;;;5029358;28;20290;-73
2022/07/07 12:39:19;;;;;;;2.83;1.00;;;25.60;85.70;;;;;;5031227;28;20220;-71
2022/07/07 12:41:53;;;;;;;1.90;1.00;;;26.10;83.40;;;;;;5049255;28;20546;-71
2022/07/07 12:44:31;;;;;;;2.40;1.00;;;26.70;81.40;;;;;;5035395;28;20206;-72
2022/07/07 12:47:18;;;;;;;3.65;0.95;;;25.60;77.40;;;;;;5032789;28;20216;-72
2022/07/07 12:49:55;;;;;;;2.08;1.13;;;25.20;80.30;;;;;;5051116;28;20211;-72
2022/07/07 12:52:22;;;;;;;2.95;1.05;;;24.60;80.80;;;;;;5036118;28;20237;-71
2022/07/07 12:54:53;;;;;;;4.15;1.10;;;24.20;82.90;;;;;;5034906;28;20545;-72
2022/07/07 12:57:27;;;;;;;3.75;1.33;;;24.10;84.80;;;;;;5015992;28;20207;-72
2022/07/07 12:59:55;;;;;;;3.75;1.10;;;24.30;83.90;;;;;;5033576;28;20581;-71
2022/07/07 13:02:22;;;;;;;4.35;1.52;;;23.50;85.90;;;;;;5007040;28;20195;-70